sensor_id;sensor_type;location;lat;lon;timestamp;temperature;humidity
30473;DHT22;17263;48.160;11.452;2024-02-26T00:00:00;3.50;99.90
30473;DHT22;17263;48.160;11.452;2024-02-26T00:02:26;3.50;99.90
30473;DHT22;17263;48.160;11.452;2024-02-26T00:04:52;3.50;99.90
30473;DHT22;17263;48.160;11.452;2024-02-26T00:07:18;3.40;99.90
30473;DHT22;17263;48.160;11.452;2024-02-26T00:09:44;3.40;99.90
30473;DHT22;17263;48.160;11.452;2024-02-26T00:12:10;3.40;99.90
30473;DHT22;17263;48.160;11.452;2024-02-26T00:14:36;3.30;99.90
30473;DHT22;17263;48.160;11.452;2024-02-26T00:17:02;3.30;99.90
30473;DHT22;17263;48.160;11.452;2024-02-26T00:19:28;3.30;99.90
30473;DHT22;17263;48.160;11.452;2024-02-26T00:21:55;3.30;99.90
30473;DHT22;17263;48.160;11.452;2024-02-26T00:24:21;3.30;99.90
30473;DHT22;17263;48.160;11.452;2024-02-26T00:26:47;3.30;99.90
30473;DHT22;17263;48.160;11.452;2024-02-26T00:29:19;3.20;99.90
30473;DHT22;17263;48.160;11.452;2024-02-26T00:31:45;3.10;99.90
30473;DHT22;17263;48.160;11.452;2024-02-26T00:34:11;3.20;99.90
30473;DHT22;17263;48.160;11.452;2024-02-26T00:36:37;3.10;99.90
30473;DHT22;17263;48.160;11.452;2024-02-26T00:39:03;3.10;99.90
30473;DHT22;17263;48.160;11.452;2024-02-26T00:41:29;3.00;99.90
30473;DHT22;17263;48.160;11.452;2024-02-26T00:43:55;3.00;99.90
30473;DHT22;17263;48.160;11.452;2024-02-26T00:46:21;3.00;99.90
30473;DHT22;17263;48.160;11.452;2024-02-26T00:48:47;3.00;99.90
30473;DHT22;17263;48.160;11.452;2024-02-26T00:51:14;3.00;99.90
30473;DHT22;17263;48.160;11.452;2024-02-26T00:53:41;3.00;99.90
30473;DHT22;17263;48.160;11.452;2024-02-26T00:56:07;3.00;99.90
30473;DHT22;17263;48.160;11.452;2024-02-26T00:58:33;3.00;99.90
30473;DHT22;17263;48.160;11.452;2024-02-26T01:00:59;3.10;99.90
30473;DHT22;17263;48.160;11.452;2024-02-26T01:03:25;3.10;99.90
30473;DHT22;17263;48.160;11.452;2024-02-26T01:05:51;3.10;99.90
30473;DHT22;17263;48.160;11.452;2024-02-26T01:08:17;3.10;99.90
30473;DHT22;17263;48.160;11.452;2024-02-26T01:10:43;3.10;99.90
30473;DHT22;17263;48.160;11.452;2024-02-26T01:13:09;3.10;99.90
30473;DHT22;17263;48.160;11.452;2024-02-26T01:15:35;3.10;99.90
30473;DHT22;17263;48.160;11.452;2024-02-26T01:18:01;3.00;99.90
30473;DHT22;17263;48.160;11.452;2024-02-26T01:20:27;3.00;99.90
30473;DHT22;17263;48.160;11.452;2024-02-26T01:22:53;3.00;99.90
30473;DHT22;17263;48.160;11.452;2024-02-26T01:25:19;2.90;99.90
30473;DHT22;17263;48.160;11.452;2024-02-26T01:27:45;2.90;99.90
30473;DHT22;17263;48.160;11.452;2024-02-26T01:30:12;2.90;99.90
30473;DHT22;17263;48.160;11.452;2024-02-26T01:32:38;3.00;99.90
30473;DHT22;17263;48.160;11.452;2024-02-26T01:35:04;3.00;99.90
30473;DHT22;17263;48.160;11.452;2024-02-26T01:37:31;3.00;99.90
30473;DHT22;17263;48.160;11.452;2024-02-26T01:39:57;3.00;99.90
30473;DHT22;17263;48.160;11.452;2024-02-26T01:42:23;3.00;99.90
30473;DHT22;17263;48.160;11.452;2024-02-26T01:44:49;2.90;99.90
30473;DHT22;17263;48.160;11.452;2024-02-26T01:47:15;3.00;99.90
30473;DHT22;17263;48.160;11.452;2024-02-26T01:49:41;2.90;99.90
30473;DHT22;17263;48.160;11.452;2024-02-26T01:52:08;2.90;99.90
30473;DHT22;17263;48.160;11.452;2024-02-26T01:54:37;2.90;99.90
30473;DHT22;17263;48.160;11.452;2024-02-26T01:57:05;2.90;99.90
30473;DHT22;17263;48.160;11.452;2024-02-26T01:59:32;2.90;99.90
30473;DHT22;17263;48.160;11.452;2024-02-26T02:02:01;2.90;99.90
30473;DHT22;17263;48.160;11.452;2024-02-26T02:04:27;2.90;99.90
30473;DHT22;17263;48.160;11.452;2024-02-26T02:06:54;2.90;99.90
30473;DHT22;17263;48.160;11.452;2024-02-26T02:09:20;2.90;99.90
30473;DHT22;17263;48.160;11.452;2024-02-26T02:11:48;2.90;99.90
30473;DHT22;17263;48.160;11.452;2024-02-26T02:14:15;2.80;99.90
30473;DHT22;17263;48.160;11.452;2024-02-26T02:16:41;2.80;99.90
30473;DHT22;17263;48.160;11.452;2024-02-26T02:19:07;2.80;99.90
30473;DHT22;17263;48.160;11.452;2024-02-26T02:21:33;2.80;99.90
30473;DHT22;17263;48.160;11.452;2024-02-26T02:23:59;2.70;99.90
30473;DHT22;17263;48.160;11.452;2024-02-26T02:26:25;2.70;99.90
30473;DHT22;17263;48.160;11.452;2024-02-26T02:28:51;2.70;99.90
30473;DHT22;17263;48.160;11.452;2024-02-26T02:31:17;2.70;99.90
30473;DHT22;17263;48.160;11.452;2024-02-26T02:33:43;2.70;99.90
30473;DHT22;17263;48.160;11.452;2024-02-26T02:36:10;2.60;99.90
30473;DHT22;17263;48.160;11.452;2024-02-26T02:38:37;2.60;99.90
30473;DHT22;17263;48.160;11.452;2024-02-26T02:41:04;2.60;99.90
30473;DHT22;17263;48.160;11.452;2024-02-26T02:43:30;2.60;99.90
30473;DHT22;17263;48.160;11.452;2024-02-26T02:45:56;2.70;99.90
30473;DHT22;17263;48.160;11.452;2024-02-26T02:48:22;2.70;99.90
30473;DHT22;17263;48.160;11.452;2024-02-26T02:50:48;2.70;99.90
30473;DHT22;17263;48.160;11.452;2024-02-26T02:53:14;2.60;99.90
30473;DHT22;17263;48.160;11.452;2024-02-26T02:55:42;2.60;99.90
30473;DHT22;17263;48.160;11.452;2024-02-26T02:58:08;2.60;99.90
30473;DHT22;17263;48.160;11.452;2024-02-26T03:00:34;2.60;99.90
30473;DHT22;17263;48.160;11.452;2024-02-26T03:03:00;2.50;99.90
30473;DHT22;17263;48.160;11.452;2024-02-26T03:05:26;2.50;99.90
30473;DHT22;17263;48.160;11.452;2024-02-26T03:07:52;2.40;99.90
30473;DHT22;17263;48.160;11.452;2024-02-26T03:10:18;2.30;99.90
30473;DHT22;17263;48.160;11.452;2024-02-26T03:12:45;2.40;99.90
30473;DHT22;17263;48.160;11.452;2024-02-26T03:15:11;2.30;99.90
30473;DHT22;17263;48.160;11.452;2024-02-26T03:17:37;2.30;99.90
30473;DHT22;17263;48.160;11.452;2024-02-26T03:20:04;2.30;99.90
30473;DHT22;17263;48.160;11.452;2024-02-26T03:22:31;2.30;99.90
30473;DHT22;17263;48.160;11.452;2024-02-26T03:24:57;2.30;99.90
30473;DHT22;17263;48.160;11.452;2024-02-26T03:27:23;2.30;99.90
30473;DHT22;17263;48.160;11.452;2024-02-26T03:29:49;2.30;99.90
30473;DHT22;17263;48.160;11.452;2024-02-26T03:32:15;2.40;99.90
30473;DHT22;17263;48.160;11.452;2024-02-26T03:34:41;2.40;99.90
30473;DHT22;17263;48.160;11.452;2024-02-26T03:37:07;2.40;99.90
30473;DHT22;17263;48.160;11.452;2024-02-26T03:39:36;2.50;99.90
30473;DHT22;17263;48.160;11.452;2024-02-26T03:42:03;2.50;99.90
30473;DHT22;17263;48.160;11.452;2024-02-26T03:44:29;2.60;99.90
30473;DHT22;17263;48.160;11.452;2024-02-26T03:46:55;2.60;99.90
30473;DHT22;17263;48.160;11.452;2024-02-26T03:49:21;2.60;99.90
30473;DHT22;17263;48.160;11.452;2024-02-26T03:51:48;2.60;99.90
30473;DHT22;17263;48.160;11.452;2024-02-26T03:54:14;2.60;99.90
30473;DHT22;17263;48.160;11.452;2024-02-26T03:56:40;2.60;99.90
30473;DHT22;17263;48.160;11.452;2024-02-26T03:59:06;2.60;99.90
30473;DHT22;17263;48.160;11.452;2024-02-26T04:01:32;2.60;99.90
30473;DHT22;17263;48.160;11.452;2024-02-26T04:03:58;2.60;99.90
30473;DHT22;17263;48.160;11.452;2024-02-26T04:06:24;2.60;99.90
30473;DHT22;17263;48.160;11.452;2024-02-26T04:08:50;2.60;99.90
30473;DHT22;17263;48.160;11.452;2024-02-26T04:11:16;2.70;99.90
30473;DHT22;17263;48.160;11.452;2024-02-26T04:13:44;2.70;99.90
30473;DHT22;17263;48.160;11.452;2024-02-26T04:16:15;2.70;99.90
30473;DHT22;17263;48.160;11.452;2024-02-26T04:18:42;2.70;99.90
30473;DHT22;17263;48.160;11.452;2024-02-26T04:21:08;2.70;99.90
30473;DHT22;17263;48.160;11.452;2024-02-26T04:23:34;2.80;99.90
30473;DHT22;17263;48.160;11.452;2024-02-26T04:26:00;2.80;99.90
30473;DHT22;17263;48.160;11.452;2024-02-26T04:28:26;2.80;99.90
30473;DHT22;17263;48.160;11.452;2024-02-26T04:30:55;2.70;99.90
30473;DHT22;17263;48.160;11.452;2024-02-26T04:33:21;2.70;99.90
30473;DHT22;17263;48.160;11.452;2024-02-26T04:35:47;2.70;99.90
30473;DHT22;17263;48.160;11.452;2024-02-26T04:38:13;2.60;99.90
30473;DHT22;17263;48.160;11.452;2024-02-26T04:40:39;2.50;99.90
30473;DHT22;17263;48.160;11.452;2024-02-26T04:43:05;2.50;99.90
30473;DHT22;17263;48.160;11.452;2024-02-26T04:45:31;2.40;99.90
30473;DHT22;17263;48.160;11.452;2024-02-26T04:47:57;2.30;99.90
30473;DHT22;17263;48.160;11.452;2024-02-26T04:50:23;2.30;99.90
30473;DHT22;17263;48.160;11.452;2024-02-26T04:52:49;2.30;99.90
30473;DHT22;17263;48.160;11.452;2024-02-26T04:55:15;2.30;99.90
30473;DHT22;17263;48.160;11.452;2024-02-26T04:57:42;2.20;99.90
30473;DHT22;17263;48.160;11.452;2024-02-26T05:00:08;2.30;99.90
30473;DHT22;17263;48.160;11.452;2024-02-26T05:02:35;2.30;99.90
30473;DHT22;17263;48.160;11.452;2024-02-26T05:05:05;2.30;99.90
30473;DHT22;17263;48.160;11.452;2024-02-26T05:07:31;2.30;99.90
30473;DHT22;17263;48.160;11.452;2024-02-26T05:09:58;2.40;99.90
30473;DHT22;17263;48.160;11.452;2024-02-26T05:12:24;2.40;99.90
30473;DHT22;17263;48.160;11.452;2024-02-26T05:14:50;2.40;99.90
30473;DHT22;17263;48.160;11.452;2024-02-26T05:17:16;2.40;99.90
30473;DHT22;17263;48.160;11.452;2024-02-26T05:19:42;2.40;99.90
30473;DHT22;17263;48.160;11.452;2024-02-26T05:22:08;2.40;99.90
30473;DHT22;17263;48.160;11.452;2024-02-26T05:24:34;2.40;99.90
30473;DHT22;17263;48.160;11.452;2024-02-26T05:27:03;2.40;99.90
30473;DHT22;17263;48.160;11.452;2024-02-26T05:29:29;2.40;99.90
30473;DHT22;17263;48.160;11.452;2024-02-26T05:31:55;2.40;99.90
30473;DHT22;17263;48.160;11.452;2024-02-26T05:34:21;2.40;99.90
30473;DHT22;17263;48.160;11.452;2024-02-26T05:36:47;2.30;99.90
30473;DHT22;17263;48.160;11.452;2024-02-26T05:39:13;2.30;99.90
30473;DHT22;17263;48.160;11.452;2024-02-26T05:41:39;2.30;99.90
30473;DHT22;17263;48.160;11.452;2024-02-26T05:44:08;2.30;99.90
30473;DHT22;17263;48.160;11.452;2024-02-26T05:46:36;2.30;99.90
30473;DHT22;17263;48.160;11.452;2024-02-26T05:49:02;2.30;99.90
30473;DHT22;17263;48.160;11.452;2024-02-26T05:51:28;2.40;99.90
30473;DHT22;17263;48.160;11.452;2024-02-26T05:53:54;2.40;99.90
30473;DHT22;17263;48.160;11.452;2024-02-26T05:56:21;2.30;99.90
30473;DHT22;17263;48.160;11.452;2024-02-26T05:58:48;2.40;99.90
30473;DHT22;17263;48.160;11.452;2024-02-26T06:01:16;2.40;99.90
30473;DHT22;17263;48.160;11.452;2024-02-26T06:03:43;2.50;99.90
30473;DHT22;17263;48.160;11.452;2024-02-26T06:06:10;2.50;99.90
30473;DHT22;17263;48.160;11.452;2024-02-26T06:08:36;2.50;99.90
30473;DHT22;17263;48.160;11.452;2024-02-26T06:11:06;2.50;99.90
30473;DHT22;17263;48.160;11.452;2024-02-26T06:13:33;2.60;99.90
30473;DHT22;17263;48.160;11.452;2024-02-26T06:15:59;2.70;99.90
30473;DHT22;17263;48.160;11.452;2024-02-26T06:18:25;2.80;99.90
30473;DHT22;17263;48.160;11.452;2024-02-26T06:20:51;2.80;99.90
30473;DHT22;17263;48.160;11.452;2024-02-26T06:23:17;2.90;99.90
30473;DHT22;17263;48.160;11.452;2024-02-26T06:25:43;2.90;99.90
30473;DHT22;17263;48.160;11.452;2024-02-26T06:28:10;2.90;99.90
30473;DHT22;17263;48.160;11.452;2024-02-26T06:30:36;2.90;99.90
30473;DHT22;17263;48.160;11.452;2024-02-26T06:33:02;3.00;99.90
30473;DHT22;17263;48.160;11.452;2024-02-26T06:35:28;3.10;99.90
30473;DHT22;17263;48.160;11.452;2024-02-26T06:37:54;3.20;99.90
30473;DHT22;17263;48.160;11.452;2024-02-26T06:40:20;3.20;99.90
30473;DHT22;17263;48.160;11.452;2024-02-26T06:42:47;3.30;99.90
30473;DHT22;17263;48.160;11.452;2024-02-26T06:45:13;3.40;99.90
30473;DHT22;17263;48.160;11.452;2024-02-26T06:47:39;3.40;99.90
30473;DHT22;17263;48.160;11.452;2024-02-26T06:50:05;3.50;99.90
30473;DHT22;17263;48.160;11.452;2024-02-26T06:52:31;3.50;99.90
30473;DHT22;17263;48.160;11.452;2024-02-26T06:54:57;3.60;99.90
30473;DHT22;17263;48.160;11.452;2024-02-26T06:57:23;3.60;99.90
30473;DHT22;17263;48.160;11.452;2024-02-26T06:59:50;3.70;99.90
30473;DHT22;17263;48.160;11.452;2024-02-26T07:02:16;3.80;99.90
30473;DHT22;17263;48.160;11.452;2024-02-26T07:04:42;3.70;99.90
30473;DHT22;17263;48.160;11.452;2024-02-26T07:07:08;3.70;99.90
30473;DHT22;17263;48.160;11.452;2024-02-26T07:09:35;3.70;99.90
30473;DHT22;17263;48.160;11.452;2024-02-26T07:12:01;3.70;99.90
30473;DHT22;17263;48.160;11.452;2024-02-26T07:14:27;3.80;99.90
30473;DHT22;17263;48.160;11.452;2024-02-26T07:16:53;3.80;99.90
30473;DHT22;17263;48.160;11.452;2024-02-26T07:19:19;3.80;99.90
30473;DHT22;17263;48.160;11.452;2024-02-26T07:21:45;3.80;99.90
30473;DHT22;17263;48.160;11.452;2024-02-26T07:24:11;3.90;99.90
30473;DHT22;17263;48.160;11.452;2024-02-26T07:26:37;4.00;99.90
30473;DHT22;17263;48.160;11.452;2024-02-26T07:29:03;4.10;99.90
30473;DHT22;17263;48.160;11.452;2024-02-26T07:31:29;4.30;99.90
30473;DHT22;17263;48.160;11.452;2024-02-26T07:33:56;4.40;99.90
30473;DHT22;17263;48.160;11.452;2024-02-26T07:36:22;4.50;99.90
30473;DHT22;17263;48.160;11.452;2024-02-26T07:38:48;4.80;99.90
30473;DHT22;17263;48.160;11.452;2024-02-26T07:41:14;5.10;99.90
30473;DHT22;17263;48.160;11.452;2024-02-26T07:43:40;5.20;99.90
30473;DHT22;17263;48.160;11.452;2024-02-26T07:46:06;5.20;99.90
30473;DHT22;17263;48.160;11.452;2024-02-26T07:48:32;5.20;99.90
30473;DHT22;17263;48.160;11.452;2024-02-26T07:50:59;5.00;99.90
30473;DHT22;17263;48.160;11.452;2024-02-26T07:53:26;4.90;99.90
30473;DHT22;17263;48.160;11.452;2024-02-26T07:55:52;4.80;99.90
30473;DHT22;17263;48.160;11.452;2024-02-26T07:58:18;4.80;99.90
30473;DHT22;17263;48.160;11.452;2024-02-26T08:00:44;4.80;99.90
30473;DHT22;17263;48.160;11.452;2024-02-26T08:03:12;4.80;99.90
30473;DHT22;17263;48.160;11.452;2024-02-26T08:05:38;4.90;99.90
30473;DHT22;17263;48.160;11.452;2024-02-26T08:08:06;4.80;99.90
30473;DHT22;17263;48.160;11.452;2024-02-26T08:10:32;4.90;99.90
30473;DHT22;17263;48.160;11.452;2024-02-26T08:12:58;4.90;99.90
30473;DHT22;17263;48.160;11.452;2024-02-26T08:15:37;4.90;99.90
30473;DHT22;17263;48.160;11.452;2024-02-26T08:18:04;5.10;99.90
30473;DHT22;17263;48.160;11.452;2024-02-26T08:20:30;5.20;99.90
30473;DHT22;17263;48.160;11.452;2024-02-26T08:22:56;5.30;99.90
30473;DHT22;17263;48.160;11.452;2024-02-26T08:25:23;5.50;99.90
30473;DHT22;17263;48.160;11.452;2024-02-26T08:27:50;5.60;99.90
30473;DHT22;17263;48.160;11.452;2024-02-26T08:30:16;5.80;99.90
30473;DHT22;17263;48.160;11.452;2024-02-26T08:32:45;6.00;99.90
30473;DHT22;17263;48.160;11.452;2024-02-26T08:35:11;6.20;99.90
30473;DHT22;17263;48.160;11.452;2024-02-26T08:37:37;6.10;99.90
30473;DHT22;17263;48.160;11.452;2024-02-26T08:40:03;6.20;99.90
30473;DHT22;17263;48.160;11.452;2024-02-26T08:42:30;6.20;99.90
30473;DHT22;17263;48.160;11.452;2024-02-26T08:44:56;6.20;99.90
30473;DHT22;17263;48.160;11.452;2024-02-26T08:47:22;6.20;99.90
30473;DHT22;17263;48.160;11.452;2024-02-26T08:49:48;6.30;99.90
30473;DHT22;17263;48.160;11.452;2024-02-26T08:52:14;6.30;99.90
30473;DHT22;17263;48.160;11.452;2024-02-26T08:54:41;6.40;99.90
30473;DHT22;17263;48.160;11.452;2024-02-26T08:57:07;6.50;99.90
30473;DHT22;17263;48.160;11.452;2024-02-26T08:59:33;6.50;99.90
30473;DHT22;17263;48.160;11.452;2024-02-26T09:01:59;6.50;99.90
30473;DHT22;17263;48.160;11.452;2024-02-26T09:04:25;6.60;99.90
30473;DHT22;17263;48.160;11.452;2024-02-26T09:06:53;6.60;99.90
30473;DHT22;17263;48.160;11.452;2024-02-26T09:09:20;6.60;99.90
30473;DHT22;17263;48.160;11.452;2024-02-26T09:11:48;6.70;99.90
30473;DHT22;17263;48.160;11.452;2024-02-26T09:14:18;6.70;99.90
30473;DHT22;17263;48.160;11.452;2024-02-26T09:16:44;6.70;99.90
30473;DHT22;17263;48.160;11.452;2024-02-26T09:19:10;6.70;99.90
30473;DHT22;17263;48.160;11.452;2024-02-26T09:21:36;6.80;99.90
30473;DHT22;17263;48.160;11.452;2024-02-26T09:24:02;6.80;99.90
30473;DHT22;17263;48.160;11.452;2024-02-26T09:26:28;6.90;99.90
30473;DHT22;17263;48.160;11.452;2024-02-26T09:28:54;7.00;99.90
30473;DHT22;17263;48.160;11.452;2024-02-26T09:31:20;7.10;99.90
30473;DHT22;17263;48.160;11.452;2024-02-26T09:33:46;7.20;99.90
30473;DHT22;17263;48.160;11.452;2024-02-26T09:36:12;7.30;99.90
30473;DHT22;17263;48.160;11.452;2024-02-26T09:38:38;7.50;99.90
30473;DHT22;17263;48.160;11.452;2024-02-26T09:41:05;7.70;99.90
30473;DHT22;17263;48.160;11.452;2024-02-26T09:43:35;7.90;99.90
30473;DHT22;17263;48.160;11.452;2024-02-26T09:46:02;8.10;99.90
30473;DHT22;17263;48.160;11.452;2024-02-26T09:48:29;8.30;99.90
30473;DHT22;17263;48.160;11.452;2024-02-26T09:50:56;8.40;99.90
30473;DHT22;17263;48.160;11.452;2024-02-26T09:53:22;8.60;99.90
30473;DHT22;17263;48.160;11.452;2024-02-26T09:55:48;8.60;99.90
30473;DHT22;17263;48.160;11.452;2024-02-26T09:58:15;8.70;99.90
30473;DHT22;17263;48.160;11.452;2024-02-26T10:00:51;8.70;99.90
30473;DHT22;17263;48.160;11.452;2024-02-26T10:03:22;8.80;99.90
30473;DHT22;17263;48.160;11.452;2024-02-26T10:05:51;8.70;99.90
30473;DHT22;17263;48.160;11.452;2024-02-26T10:08:21;8.70;99.90
30473;DHT22;17263;48.160;11.452;2024-02-26T10:10:49;8.90;99.90
30473;DHT22;17263;48.160;11.452;2024-02-26T10:13:15;8.90;99.90
30473;DHT22;17263;48.160;11.452;2024-02-26T10:15:41;9.00;99.90
30473;DHT22;17263;48.160;11.452;2024-02-26T10:18:07;9.10;99.90
30473;DHT22;17263;48.160;11.452;2024-02-26T10:20:33;9.30;99.90
30473;DHT22;17263;48.160;11.452;2024-02-26T10:23:03;9.40;99.90
30473;DHT22;17263;48.160;11.452;2024-02-26T10:25:31;9.50;99.90
30473;DHT22;17263;48.160;11.452;2024-02-26T10:28:00;9.60;99.90
30473;DHT22;17263;48.160;11.452;2024-02-26T10:30:29;9.60;99.90
30473;DHT22;17263;48.160;11.452;2024-02-26T10:32:56;9.80;99.90
30473;DHT22;17263;48.160;11.452;2024-02-26T10:35:23;9.90;99.90
30473;DHT22;17263;48.160;11.452;2024-02-26T10:37:50;10.00;99.90
30473;DHT22;17263;48.160;11.452;2024-02-26T10:40:17;10.00;99.90
30473;DHT22;17263;48.160;11.452;2024-02-26T10:42:43;10.00;99.90
30473;DHT22;17263;48.160;11.452;2024-02-26T10:45:11;10.10;99.90
30473;DHT22;17263;48.160;11.452;2024-02-26T10:47:39;10.20;99.90
30473;DHT22;17263;48.160;11.452;2024-02-26T10:50:06;10.20;99.90
30473;DHT22;17263;48.160;11.452;2024-02-26T10:52:33;10.30;99.90
30473;DHT22;17263;48.160;11.452;2024-02-26T10:55:04;10.40;99.90
30473;DHT22;17263;48.160;11.452;2024-02-26T10:57:40;10.40;99.90
30473;DHT22;17263;48.160;11.452;2024-02-26T11:00:07;10.30;99.90
30473;DHT22;17263;48.160;11.452;2024-02-26T11:02:36;10.40;99.90
30473;DHT22;17263;48.160;11.452;2024-02-26T11:05:03;10.40;99.90
30473;DHT22;17263;48.160;11.452;2024-02-26T11:07:30;10.60;99.90
30473;DHT22;17263;48.160;11.452;2024-02-26T11:09:59;10.70;99.90
30473;DHT22;17263;48.160;11.452;2024-02-26T11:12:28;10.80;99.90
30473;DHT22;17263;48.160;11.452;2024-02-26T11:14:55;10.90;99.90
30473;DHT22;17263;48.160;11.452;2024-02-26T11:17:27;11.10;99.90
30473;DHT22;17263;48.160;11.452;2024-02-26T11:19:56;11.10;99.90
30473;DHT22;17263;48.160;11.452;2024-02-26T11:22:24;11.20;99.90
30473;DHT22;17263;48.160;11.452;2024-02-26T11:24:53;11.30;99.90
30473;DHT22;17263;48.160;11.452;2024-02-26T11:27:25;11.30;99.90
30473;DHT22;17263;48.160;11.452;2024-02-26T11:29:53;11.20;99.90
30473;DHT22;17263;48.160;11.452;2024-02-26T11:32:20;11.30;99.90
30473;DHT22;17263;48.160;11.452;2024-02-26T11:34:46;11.30;99.90
30473;DHT22;17263;48.160;11.452;2024-02-26T11:37:16;11.30;99.90
30473;DHT22;17263;48.160;11.452;2024-02-26T11:39:43;11.50;99.90
30473;DHT22;17263;48.160;11.452;2024-02-26T11:42:14;11.60;99.90
30473;DHT22;17263;48.160;11.452;2024-02-26T11:44:41;11.70;99.90
30473;DHT22;17263;48.160;11.452;2024-02-26T11:47:21;11.80;99.90
30473;DHT22;17263;48.160;11.452;2024-02-26T11:49:47;11.90;99.90
30473;DHT22;17263;48.160;11.452;2024-02-26T11:52:14;12.00;99.90
30473;DHT22;17263;48.160;11.452;2024-02-26T11:54:48;12.10;99.90
30473;DHT22;17263;48.160;11.452;2024-02-26T12:02:43;12.40;99.80
30473;DHT22;17263;48.160;11.452;2024-02-26T12:07:54;12.40;99.00
30473;DHT22;17263;48.160;11.452;2024-02-26T12:10:24;12.40;99.20
30473;DHT22;17263;48.160;11.452;2024-02-26T12:13:15;12.30;98.80
30473;DHT22;17263;48.160;11.452;2024-02-26T12:15:47;12.20;98.30
30473;DHT22;17263;48.160;11.452;2024-02-26T12:18:20;12.10;98.70
30473;DHT22;17263;48.160;11.452;2024-02-26T12:20:47;11.90;99.00
30473;DHT22;17263;48.160;11.452;2024-02-26T12:23:23;11.90;98.60
30473;DHT22;17263;48.160;11.452;2024-02-26T12:25:49;11.90;98.90
30473;DHT22;17263;48.160;11.452;2024-02-26T12:28:15;12.10;99.20
30473;DHT22;17263;48.160;11.452;2024-02-26T12:30:41;12.20;98.70
30473;DHT22;17263;48.160;11.452;2024-02-26T12:33:08;12.20;98.50
30473;DHT22;17263;48.160;11.452;2024-02-26T12:35:35;12.30;97.30
30473;DHT22;17263;48.160;11.452;2024-02-26T12:38:01;12.30;97.00
30473;DHT22;17263;48.160;11.452;2024-02-26T12:40:29;12.20;97.50
30473;DHT22;17263;48.160;11.452;2024-02-26T12:42:56;12.20;98.10
30473;DHT22;17263;48.160;11.452;2024-02-26T12:45:22;12.30;97.80
30473;DHT22;17263;48.160;11.452;2024-02-26T12:47:48;12.30;96.80
30473;DHT22;17263;48.160;11.452;2024-02-26T12:50:17;12.30;96.70
30473;DHT22;17263;48.160;11.452;2024-02-26T12:52:45;12.30;97.20
30473;DHT22;17263;48.160;11.452;2024-02-26T12:55:23;12.30;97.70
30473;DHT22;17263;48.160;11.452;2024-02-26T12:57:50;12.20;98.00
30473;DHT22;17263;48.160;11.452;2024-02-26T13:00:20;12.40;97.80
30473;DHT22;17263;48.160;11.452;2024-02-26T13:02:49;12.50;96.90
30473;DHT22;17263;48.160;11.452;2024-02-26T13:05:15;12.60;96.70
30473;DHT22;17263;48.160;11.452;2024-02-26T13:07:46;12.60;96.60
30473;DHT22;17263;48.160;11.452;2024-02-26T13:10:17;12.60;97.10
30473;DHT22;17263;48.160;11.452;2024-02-26T13:12:45;12.60;96.80
30473;DHT22;17263;48.160;11.452;2024-02-26T13:15:18;12.60;96.00
30473;DHT22;17263;48.160;11.452;2024-02-26T13:17:45;12.60;96.10
30473;DHT22;17263;48.160;11.452;2024-02-26T13:20:11;12.60;96.50
30473;DHT22;17263;48.160;11.452;2024-02-26T13:22:38;12.60;96.90
30473;DHT22;17263;48.160;11.452;2024-02-26T13:25:04;12.50;97.30
30473;DHT22;17263;48.160;11.452;2024-02-26T13:27:33;12.40;97.60
30473;DHT22;17263;48.160;11.452;2024-02-26T13:30:12;12.40;97.60
30473;DHT22;17263;48.160;11.452;2024-02-26T13:32:39;12.30;97.70
30473;DHT22;17263;48.160;11.452;2024-02-26T13:35:07;12.20;98.60
30473;DHT22;17263;48.160;11.452;2024-02-26T13:37:37;12.20;98.00
30473;DHT22;17263;48.160;11.452;2024-02-26T13:40:08;12.20;98.00
30473;DHT22;17263;48.160;11.452;2024-02-26T13:42:35;12.20;96.50
30473;DHT22;17263;48.160;11.452;2024-02-26T13:45:02;12.20;96.50
30473;DHT22;17263;48.160;11.452;2024-02-26T13:47:28;12.20;96.30
30473;DHT22;17263;48.160;11.452;2024-02-26T13:49:54;12.10;97.10
30473;DHT22;17263;48.160;11.452;2024-02-26T13:52:20;12.10;96.70
30473;DHT22;17263;48.160;11.452;2024-02-26T13:54:46;12.00;97.20
30473;DHT22;17263;48.160;11.452;2024-02-26T13:57:13;12.00;97.90
30473;DHT22;17263;48.160;11.452;2024-02-26T13:59:39;12.00;97.30
30473;DHT22;17263;48.160;11.452;2024-02-26T14:02:11;11.90;96.60
30473;DHT22;17263;48.160;11.452;2024-02-26T14:04:37;12.00;97.60
30473;DHT22;17263;48.160;11.452;2024-02-26T14:07:04;12.00;98.30
30473;DHT22;17263;48.160;11.452;2024-02-26T14:09:30;12.00;98.20
30473;DHT22;17263;48.160;11.452;2024-02-26T14:11:59;12.00;97.50
30473;DHT22;17263;48.160;11.452;2024-02-26T14:14:27;12.00;97.10
30473;DHT22;17263;48.160;11.452;2024-02-26T14:16:53;12.00;97.30
30473;DHT22;17263;48.160;11.452;2024-02-26T14:19:19;12.00;98.20
30473;DHT22;17263;48.160;11.452;2024-02-26T14:21:45;12.00;98.70
30473;DHT22;17263;48.160;11.452;2024-02-26T14:24:11;12.00;99.30
30473;DHT22;17263;48.160;11.452;2024-02-26T14:26:37;11.90;99.60
30473;DHT22;17263;48.160;11.452;2024-02-26T14:29:03;11.80;97.70
30473;DHT22;17263;48.160;11.452;2024-02-26T14:31:29;11.80;97.50
30473;DHT22;17263;48.160;11.452;2024-02-26T14:33:55;11.70;98.50
30473;DHT22;17263;48.160;11.452;2024-02-26T14:36:22;11.70;99.10
30473;DHT22;17263;48.160;11.452;2024-02-26T14:38:48;11.60;99.50
30473;DHT22;17263;48.160;11.452;2024-02-26T14:41:15;11.60;98.60
30473;DHT22;17263;48.160;11.452;2024-02-26T14:43:41;11.50;98.30
30473;DHT22;17263;48.160;11.452;2024-02-26T14:46:08;11.50;98.60
30473;DHT22;17263;48.160;11.452;2024-02-26T14:48:34;11.50;98.60
30473;DHT22;17263;48.160;11.452;2024-02-26T14:51:01;11.40;98.30
30473;DHT22;17263;48.160;11.452;2024-02-26T14:53:27;11.40;98.40
30473;DHT22;17263;48.160;11.452;2024-02-26T14:55:53;11.40;98.80
30473;DHT22;17263;48.160;11.452;2024-02-26T14:58:19;11.30;99.00
30473;DHT22;17263;48.160;11.452;2024-02-26T15:00:45;11.30;99.20
30473;DHT22;17263;48.160;11.452;2024-02-26T15:03:11;11.20;99.40
30473;DHT22;17263;48.160;11.452;2024-02-26T15:05:37;11.20;99.60
30473;DHT22;17263;48.160;11.452;2024-02-26T15:08:03;11.10;99.90
30473;DHT22;17263;48.160;11.452;2024-02-26T15:10:29;11.20;99.90
30473;DHT22;17263;48.160;11.452;2024-02-26T15:12:55;11.20;99.90
30473;DHT22;17263;48.160;11.452;2024-02-26T15:15:22;11.10;99.90
30473;DHT22;17263;48.160;11.452;2024-02-26T15:17:48;10.90;99.90
30473;DHT22;17263;48.160;11.452;2024-02-26T15:20:19;10.80;99.90
30473;DHT22;17263;48.160;11.452;2024-02-26T15:22:45;10.70;99.90
30473;DHT22;17263;48.160;11.452;2024-02-26T15:25:12;10.60;99.90
30473;DHT22;17263;48.160;11.452;2024-02-26T15:27:38;10.50;99.90
30473;DHT22;17263;48.160;11.452;2024-02-26T15:30:04;10.40;99.90